sensor_id;sensor_type;location;lat;lon;timestamp;P1;durP1;ratioP1;P2;durP2;ratioP2
84146;SDS011;74267;50.434;7.398;2024-02-15T00:00:39;10.43;;;8.02;;
84146;SDS011;74267;50.434;7.398;2024-02-15T00:03:05;11.07;;;7.97;;
84146;SDS011;74267;50.434;7.398;2024-02-15T00:05:33;13.63;;;8.38;;
84146;SDS011;74267;50.434;7.398;2024-02-15T00:08:01;12.25;;;8.18;;
84146;SDS011;74267;50.434;7.398;2024-02-15T00:10:27;14.10;;;8.48;;
84146;SDS011;74267;50.434;7.398;2024-02-15T00:12:52;13.30;;;8.60;;
84146;SDS011;74267;50.434;7.398;2024-02-15T00:15:17;12.10;;;8.70;;
84146;SDS011;74267;50.434;7.398;2024-02-15T00:17:44;11.57;;;8.38;;
84146;SDS011;74267;50.434;7.398;2024-02-15T00:20:11;13.35;;;8.60;;
84146;SDS011;74267;50.434;7.398;2024-02-15T00:22:37;12.48;;;8.88;;
84146;SDS011;74267;50.434;7.398;2024-02-15T00:25:06;11.57;;;8.52;;
84146;SDS011;74267;50.434;7.398;2024-02-15T00:27:33;10.80;;;7.65;;
84146;SDS011;74267;50.434;7.398;2024-02-15T00:30:00;13.48;;;12.07;;
84146;SDS011;74267;50.434;7.398;2024-02-15T00:32:25;13.23;;;9.30;;
84146;SDS011;74267;50.434;7.398;2024-02-15T00:34:51;10.90;;;8.05;;
84146;SDS011;74267;50.434;7.398;2024-02-15T00:37:16;13.25;;;10.70;;
84146;SDS011;74267;50.434;7.398;2024-02-15T00:39:42;10.30;;;7.72;;
84146;SDS011;74267;50.434;7.398;2024-02-15T00:42:08;13.55;;;12.07;;
84146;SDS011;74267;50.434;7.398;2024-02-15T00:44:34;13.02;;;8.68;;
84146;SDS011;74267;50.434;7.398;2024-02-15T00:46:59;12.65;;;7.95;;
84146;SDS011;74267;50.434;7.398;2024-02-15T00:49:24;13.27;;;10.30;;
84146;SDS011;74267;50.434;7.398;2024-02-15T00:51:53;13.50;;;8.18;;
84146;SDS011;74267;50.434;7.398;2024-02-15T00:54:18;12.38;;;9.98;;
84146;SDS011;74267;50.434;7.398;2024-02-15T00:56:43;12.23;;;8.27;;
84146;SDS011;74267;50.434;7.398;2024-02-15T00:59:09;9.57;;;7.65;;
84146;SDS011;74267;50.434;7.398;2024-02-15T01:01:34;11.85;;;7.95;;
84146;SDS011;74267;50.434;7.398;2024-02-15T01:04:02;10.57;;;7.68;;
84146;SDS011;74267;50.434;7.398;2024-02-15T01:06:28;12.57;;;9.73;;
84146;SDS011;74267;50.434;7.398;2024-02-15T01:08:54;13.35;;;7.78;;
84146;SDS011;74267;50.434;7.398;2024-02-15T01:11:19;11.30;;;7.60;;
84146;SDS011;74267;50.434;7.398;2024-02-15T01:13:44;11.88;;;7.68;;
84146;SDS011;74267;50.434;7.398;2024-02-15T01:16:10;11.95;;;7.70;;
84146;SDS011;74267;50.434;7.398;2024-02-15T01:18:35;10.85;;;7.50;;
84146;SDS011;74267;50.434;7.398;2024-02-15T01:21:01;12.10;;;8.60;;
84146;SDS011;74267;50.434;7.398;2024-02-15T01:23:26;11.00;;;7.53;;
84146;SDS011;74267;50.434;7.398;2024-02-15T01:25:52;11.02;;;9.90;;
84146;SDS011;74267;50.434;7.398;2024-02-15T01:28:17;12.77;;;7.35;;
84146;SDS011;74267;50.434;7.398;2024-02-15T01:30:42;14.82;;;7.50;;
84146;SDS011;74267;50.434;7.398;2024-02-15T01:33:11;12.25;;;7.28;;
84146;SDS011;74267;50.434;7.398;2024-02-15T01:35:37;11.02;;;9.95;;
84146;SDS011;74267;50.434;7.398;2024-02-15T01:38:03;14.48;;;7.50;;
84146;SDS011;74267;50.434;7.398;2024-02-15T01:40:28;10.60;;;6.55;;
84146;SDS011;74267;50.434;7.398;2024-02-15T01:42:53;12.52;;;6.75;;
84146;SDS011;74267;50.434;7.398;2024-02-15T01:45:20;9.60;;;7.28;;
84146;SDS011;74267;50.434;7.398;2024-02-15T01:47:46;13.32;;;6.78;;
84146;SDS011;74267;50.434;7.398;2024-02-15T01:50:13;11.45;;;8.63;;
84146;SDS011;74267;50.434;7.398;2024-02-15T01:52:39;8.70;;;5.30;;
84146;SDS011;74267;50.434;7.398;2024-02-15T01:55:06;12.90;;;6.00;;
84146;SDS011;74267;50.434;7.398;2024-02-15T01:57:32;10.27;;;5.90;;
84146;SDS011;74267;50.434;7.398;2024-02-15T02:00:03;10.05;;;6.25;;
84146;SDS011;74267;50.434;7.398;2024-02-15T02:02:30;8.73;;;7.78;;
84146;SDS011;74267;50.434;7.398;2024-02-15T02:04:59;7.63;;;5.88;;
84146;SDS011;74267;50.434;7.398;2024-02-15T02:07:25;12.05;;;6.30;;
84146;SDS011;74267;50.434;7.398;2024-02-15T02:09:51;9.38;;;7.38;;
84146;SDS011;74267;50.434;7.398;2024-02-15T02:12:16;17.45;;;5.65;;
84146;SDS011;74267;50.434;7.398;2024-02-15T02:14:43;8.73;;;5.60;;
84146;SDS011;74267;50.434;7.398;2024-02-15T02:17:12;7.57;;;6.13;;
84146;SDS011;74267;50.434;7.398;2024-02-15T02:19:38;11.57;;;5.88;;
84146;SDS011;74267;50.434;7.398;2024-02-15T02:22:04;10.80;;;8.82;;
84146;SDS011;74267;50.434;7.398;2024-02-15T02:24:30;12.02;;;7.75;;
84146;SDS011;74267;50.434;7.398;2024-02-15T02:27:02;13.95;;;5.93;;
84146;SDS011;74267;50.434;7.398;2024-02-15T02:29:30;8.70;;;5.47;;
84146;SDS011;74267;50.434;7.398;2024-02-15T02:31:56;9.35;;;5.57;;
84146;SDS011;74267;50.434;7.398;2024-02-15T02:34:22;11.75;;;5.63;;
84146;SDS011;74267;50.434;7.398;2024-02-15T02:36:47;11.20;;;9.25;;
84146;SDS011;74267;50.434;7.398;2024-02-15T02:39:13;11.55;;;5.97;;
84146;SDS011;74267;50.434;7.398;2024-02-15T02:41:38;9.77;;;5.93;;
84146;SDS011;74267;50.434;7.398;2024-02-15T02:44:03;10.57;;;6.13;;
84146;SDS011;74267;50.434;7.398;2024-02-15T02:46:29;11.50;;;6.43;;
84146;SDS011;74267;50.434;7.398;2024-02-15T02:48:55;8.82;;;5.32;;
84146;SDS011;74267;50.434;7.398;2024-02-15T02:51:20;8.57;;;5.65;;
84146;SDS011;74267;50.434;7.398;2024-02-15T02:53:46;8.60;;;6.57;;
84146;SDS011;74267;50.434;7.398;2024-02-15T02:56:11;7.95;;;5.68;;
84146;SDS011;74267;50.434;7.398;2024-02-15T02:58:37;11.25;;;5.97;;
84146;SDS011;74267;50.434;7.398;2024-02-15T03:01:07;9.57;;;5.70;;
84146;SDS011;74267;50.434;7.398;2024-02-15T03:03:33;9.77;;;5.22;;
84146;SDS011;74267;50.434;7.398;2024-02-15T03:05:58;10.77;;;6.03;;
84146;SDS011;74267;50.434;7.398;2024-02-15T03:08:24;9.38;;;5.18;;
84146;SDS011;74267;50.434;7.398;2024-02-15T03:10:49;9.50;;;5.65;;
84146;SDS011;74267;50.434;7.398;2024-02-15T03:13:16;9.88;;;5.95;;
84146;SDS011;74267;50.434;7.398;2024-02-15T03:15:44;10.57;;;5.85;;
84146;SDS011;74267;50.434;7.398;2024-02-15T03:18:13;9.70;;;5.53;;
84146;SDS011;74267;50.434;7.398;2024-02-15T03:20:39;9.57;;;6.30;;
84146;SDS011;74267;50.434;7.398;2024-02-15T03:23:05;11.00;;;6.85;;
84146;SDS011;74267;50.434;7.398;2024-02-15T03:25:30;7.95;;;5.45;;
84146;SDS011;74267;50.434;7.398;2024-02-15T03:27:56;12.73;;;5.85;;
84146;SDS011;74267;50.434;7.398;2024-02-15T03:30:23;7.55;;;5.10;;
84146;SDS011;74267;50.434;7.398;2024-02-15T03:32:50;8.23;;;4.75;;
84146;SDS011;74267;50.434;7.398;2024-02-15T03:35:18;8.90;;;4.75;;
84146;SDS011;74267;50.434;7.398;2024-02-15T03:37:45;8.40;;;6.95;;
84146;SDS011;74267;50.434;7.398;2024-02-15T03:40:10;11.20;;;4.75;;
84146;SDS011;74267;50.434;7.398;2024-02-15T03:42:36;11.52;;;4.75;;
84146;SDS011;74267;50.434;7.398;2024-02-15T03:45:05;10.38;;;5.07;;
84146;SDS011;74267;50.434;7.398;2024-02-15T03:47:34;15.18;;;5.25;;
84146;SDS011;74267;50.434;7.398;2024-02-15T03:50:03;8.52;;;4.72;;
84146;SDS011;74267;50.434;7.398;2024-02-15T03:52:34;9.30;;;4.85;;
84146;SDS011;74267;50.434;7.398;2024-02-15T03:55:00;8.52;;;7.28;;
84146;SDS011;74267;50.434;7.398;2024-02-15T03:57:27;7.57;;;4.32;;
84146;SDS011;74267;50.434;7.398;2024-02-15T03:59:53;8.57;;;4.47;;
84146;SDS011;74267;50.434;7.398;2024-02-15T04:02:19;8.73;;;4.30;;
84146;SDS011;74267;50.434;7.398;2024-02-15T04:04:45;7.88;;;4.60;;
84146;SDS011;74267;50.434;7.398;2024-02-15T04:07:12;6.68;;;4.88;;
84146;SDS011;74267;50.434;7.398;2024-02-15T04:09:39;7.97;;;4.35;;
84146;SDS011;74267;50.434;7.398;2024-02-15T04:12:05;7.88;;;4.30;;
84146;SDS011;74267;50.434;7.398;2024-02-15T04:14:32;8.48;;;4.60;;
84146;SDS011;74267;50.434;7.398;2024-02-15T04:16:58;10.45;;;5.03;;
84146;SDS011;74267;50.434;7.398;2024-02-15T04:19:24;9.35;;;5.22;;
84146;SDS011;74267;50.434;7.398;2024-02-15T04:21:49;7.07;;;4.75;;
84146;SDS011;74267;50.434;7.398;2024-02-15T04:24:16;9.60;;;4.22;;
84146;SDS011;74267;50.434;7.398;2024-02-15T04:26:41;7.38;;;4.95;;
84146;SDS011;74267;50.434;7.398;2024-02-15T04:29:07;8.90;;;5.20;;
84146;SDS011;74267;50.434;7.398;2024-02-15T04:31:34;8.75;;;4.57;;
84146;SDS011;74267;50.434;7.398;2024-02-15T04:34:02;10.05;;;4.47;;
84146;SDS011;74267;50.434;7.398;2024-02-15T04:36:28;7.20;;;4.57;;
84146;SDS011;74267;50.434;7.398;2024-02-15T04:38:58;10.07;;;4.25;;
84146;SDS011;74267;50.434;7.398;2024-02-15T04:41:24;6.93;;;4.70;;
84146;SDS011;74267;50.434;7.398;2024-02-15T04:43:50;8.65;;;6.55;;
84146;SDS011;74267;50.434;7.398;2024-02-15T04:46:15;6.35;;;4.68;;
84146;SDS011;74267;50.434;7.398;2024-02-15T04:48:41;6.70;;;3.83;;
84146;SDS011;74267;50.434;7.398;2024-02-15T04:51:07;12.60;;;4.78;;
84146;SDS011;74267;50.434;7.398;2024-02-15T04:53:34;10.13;;;6.63;;
84146;SDS011;74267;50.434;7.398;2024-02-15T04:56:01;5.82;;;4.60;;
84146;SDS011;74267;50.434;7.398;2024-02-15T04:58:28;5.53;;;3.80;;
84146;SDS011;74267;50.434;7.398;2024-02-15T05:00:54;8.00;;;3.70;;
84146;SDS011;74267;50.434;7.398;2024-02-15T05:03:23;8.52;;;4.80;;
84146;SDS011;74267;50.434;7.398;2024-02-15T05:05:49;7.97;;;3.90;;
84146;SDS011;74267;50.434;7.398;2024-02-15T05:08:15;7.55;;;4.78;;
84146;SDS011;74267;50.434;7.398;2024-02-15T05:10:40;6.68;;;4.53;;
84146;SDS011;74267;50.434;7.398;2024-02-15T05:13:05;9.70;;;4.25;;
84146;SDS011;74267;50.434;7.398;2024-02-15T05:15:31;7.95;;;4.35;;
84146;SDS011;74267;50.434;7.398;2024-02-15T05:17:56;13.82;;;9.07;;
84146;SDS011;74267;50.434;7.398;2024-02-15T05:20:21;7.55;;;4.78;;
84146;SDS011;74267;50.434;7.398;2024-02-15T05:22:46;11.13;;;5.18;;
84146;SDS011;74267;50.434;7.398;2024-02-15T05:25:12;12.95;;;4.88;;
84146;SDS011;74267;50.434;7.398;2024-02-15T05:27:37;6.68;;;5.07;;
84146;SDS011;74267;50.434;7.398;2024-02-15T05:30:03;6.75;;;4.72;;
84146;SDS011;74267;50.434;7.398;2024-02-15T05:32:33;7.30;;;4.88;;
84146;SDS011;74267;50.434;7.398;2024-02-15T05:35:08;12.55;;;7.32;;
84146;SDS011;74267;50.434;7.398;2024-02-15T05:37:35;7.35;;;4.60;;
84146;SDS011;74267;50.434;7.398;2024-02-15T05:40:00;8.13;;;4.80;;
84146;SDS011;74267;50.434;7.398;2024-02-15T05:42:25;6.32;;;4.40;;
84146;SDS011;74267;50.434;7.398;2024-02-15T05:44:52;6.05;;;4.55;;
84146;SDS011;74267;50.434;7.398;2024-02-15T05:47:17;9.82;;;7.38;;
84146;SDS011;74267;50.434;7.398;2024-02-15T05:49:42;8.18;;;3.65;;
84146;SDS011;74267;50.434;7.398;2024-02-15T05:52:08;11.30;;;6.97;;
84146;SDS011;74267;50.434;7.398;2024-02-15T05:54:33;7.95;;;3.80;;
84146;SDS011;74267;50.434;7.398;2024-02-15T05:56:59;8.98;;;7.00;;
84146;SDS011;74267;50.434;7.398;2024-02-15T05:59:25;10.57;;;4.75;;
84146;SDS011;74267;50.434;7.398;2024-02-15T06:01:51;8.07;;;4.57;;
84146;SDS011;74267;50.434;7.398;2024-02-15T06:04:16;8.93;;;4.45;;
84146;SDS011;74267;50.434;7.398;2024-02-15T06:06:41;7.95;;;4.32;;
84146;SDS011;74267;50.434;7.398;2024-02-15T06:09:07;7.75;;;4.63;;
84146;SDS011;74267;50.434;7.398;2024-02-15T06:11:33;10.65;;;6.55;;
84146;SDS011;74267;50.434;7.398;2024-02-15T06:13:58;11.05;;;8.73;;
84146;SDS011;74267;50.434;7.398;2024-02-15T06:16:24;6.07;;;4.60;;
84146;SDS011;74267;50.434;7.398;2024-02-15T06:18:49;5.78;;;3.90;;
84146;SDS011;74267;50.434;7.398;2024-02-15T06:21:15;8.52;;;7.68;;
84146;SDS011;74267;50.434;7.398;2024-02-15T06:23:40;8.00;;;4.57;;
84146;SDS011;74267;50.434;7.398;2024-02-15T06:26:05;11.20;;;4.35;;
84146;SDS011;74267;50.434;7.398;2024-02-15T06:28:31;8.73;;;7.32;;
84146;SDS011;74267;50.434;7.398;2024-02-15T06:31:15;10.18;;;4.30;;
84146;SDS011;74267;50.434;7.398;2024-02-15T06:33:58;8.13;;;5.50;;
84146;SDS011;74267;50.434;7.398;2024-02-15T06:36:55;7.95;;;6.40;;
84146;SDS011;74267;50.434;7.398;2024-02-15T06:39:40;7.20;;;4.13;;
84146;SDS011;74267;50.434;7.398;2024-02-15T06:42:09;10.80;;;4.88;;
84146;SDS011;74267;50.434;7.398;2024-02-15T06:44:36;8.52;;;4.80;;
84146;SDS011;74267;50.434;7.398;2024-02-15T06:47:03;8.85;;;5.65;;
84146;SDS011;74267;50.434;7.398;2024-02-15T06:49:28;9.45;;;4.43;;
84146;SDS011;74267;50.434;7.398;2024-02-15T06:51:54;12.60;;;9.35;;
84146;SDS011;74267;50.434;7.398;2024-02-15T06:54:19;7.88;;;5.03;;
84146;SDS011;74267;50.434;7.398;2024-02-15T06:56:45;8.85;;;4.65;;
84146;SDS011;74267;50.434;7.398;2024-02-15T07:01:40;8.50;;;4.28;;
84146;SDS011;74267;50.434;7.398;2024-02-15T07:04:06;9.73;;;5.20;;
84146;SDS011;74267;50.434;7.398;2024-02-15T07:06:33;8.55;;;4.93;;
84146;SDS011;74267;50.434;7.398;2024-02-15T07:08:59;7.57;;;4.50;;
84146;SDS011;74267;50.434;7.398;2024-02-15T07:11:25;9.80;;;4.80;;
84146;SDS011;74267;50.434;7.398;2024-02-15T07:13:50;7.78;;;5.10;;
84146;SDS011;74267;50.434;7.398;2024-02-15T07:16:19;7.82;;;5.10;;
84146;SDS011;74267;50.434;7.398;2024-02-15T07:18:44;9.65;;;5.60;;
84146;SDS011;74267;50.434;7.398;2024-02-15T07:21:11;11.73;;;10.57;;
84146;SDS011;74267;50.434;7.398;2024-02-15T07:23:39;10.25;;;5.15;;
84146;SDS011;74267;50.434;7.398;2024-02-15T07:26:06;7.68;;;5.65;;
84146;SDS011;74267;50.434;7.398;2024-02-15T07:28:32;7.28;;;5.13;;
84146;SDS011;74267;50.434;7.398;2024-02-15T07:30:57;10.75;;;5.18;;
84146;SDS011;74267;50.434;7.398;2024-02-15T07:33:22;11.82;;;6.07;;
84146;SDS011;74267;50.434;7.398;2024-02-15T07:35:48;10.40;;;7.70;;
84146;SDS011;74267;50.434;7.398;2024-02-15T07:38:16;9.90;;;6.90;;
84146;SDS011;74267;50.434;7.398;2024-02-15T07:40:42;13.00;;;9.60;;
84146;SDS011;74267;50.434;7.398;2024-02-15T07:43:07;12.40;;;6.95;;
84146;SDS011;74267;50.434;7.398;2024-02-15T07:45:33;12.60;;;6.88;;
84146;SDS011;74267;50.434;7.398;2024-02-15T07:48:01;12.35;;;6.22;;
84146;SDS011;74267;50.434;7.398;2024-02-15T07:50:29;12.70;;;6.57;;
84146;SDS011;74267;50.434;7.398;2024-02-15T07:52:55;14.57;;;7.00;;
84146;SDS011;74267;50.434;7.398;2024-02-15T07:55:21;14.60;;;7.03;;
84146;SDS011;74267;50.434;7.398;2024-02-15T07:57:46;8.40;;;5.85;;
84146;SDS011;74267;50.434;7.398;2024-02-15T08:00:13;9.57;;;6.10;;
84146;SDS011;74267;50.434;7.398;2024-02-15T08:02:41;14.40;;;6.88;;
84146;SDS011;74267;50.434;7.398;2024-02-15T08:05:10;12.50;;;6.45;;
84146;SDS011;74267;50.434;7.398;2024-02-15T08:07:37;10.20;;;6.15;;
84146;SDS011;74267;50.434;7.398;2024-02-15T08:10:04;9.60;;;6.65;;
84146;SDS011;74267;50.434;7.398;2024-02-15T08:12:32;15.20;;;6.88;;
84146;SDS011;74267;50.434;7.398;2024-02-15T08:14:57;8.73;;;6.10;;
84146;SDS011;74267;50.434;7.398;2024-02-15T08:17:23;9.90;;;8.75;;
84146;SDS011;74267;50.434;7.398;2024-02-15T08:19:48;11.38;;;10.18;;
84146;SDS011;74267;50.434;7.398;2024-02-15T08:22:13;11.77;;;6.93;;
84146;SDS011;74267;50.434;7.398;2024-02-15T08:24:39;10.90;;;7.90;;
84146;SDS011;74267;50.434;7.398;2024-02-15T08:27:04;15.95;;;10.65;;
84146;SDS011;74267;50.434;7.398;2024-02-15T08:29:30;15.98;;;7.95;;
84146;SDS011;74267;50.434;7.398;2024-02-15T08:31:55;15.57;;;9.70;;
84146;SDS011;74267;50.434;7.398;2024-02-15T08:34:20;15.15;;;7.57;;
84146;SDS011;74267;50.434;7.398;2024-02-15T08:36:46;23.38;;;10.95;;
84146;SDS011;74267;50.434;7.398;2024-02-15T08:39:13;23.60;;;7.55;;
84146;SDS011;74267;50.434;7.398;2024-02-15T08:41:41;14.57;;;7.63;;
84146;SDS011;74267;50.434;7.398;2024-02-15T08:44:06;21.27;;;8.25;;
84146;SDS011;74267;50.434;7.398;2024-02-15T08:46:36;20.60;;;8.05;;
84146;SDS011;74267;50.434;7.398;2024-02-15T08:49:02;24.42;;;11.50;;
84146;SDS011;74267;50.434;7.398;2024-02-15T08:51:28;21.30;;;7.72;;
84146;SDS011;74267;50.434;7.398;2024-02-15T08:53:55;19.90;;;8.05;;
84146;SDS011;74267;50.434;7.398;2024-02-15T08:56:20;21.08;;;8.60;;
84146;SDS011;74267;50.434;7.398;2024-02-15T08:58:48;17.70;;;8.05;;
84146;SDS011;74267;50.434;7.398;2024-02-15T09:01:13;23.65;;;8.35;;
84146;SDS011;74267;50.434;7.398;2024-02-15T09:03:39;12.80;;;6.78;;
84146;SDS011;74267;50.434;7.398;2024-02-15T09:06:04;17.55;;;8.27;;
84146;SDS011;74267;50.434;7.398;2024-02-15T09:08:29;17.35;;;8.05;;
84146;SDS011;74267;50.434;7.398;2024-02-15T09:10:55;13.15;;;6.75;;
84146;SDS011;74267;50.434;7.398;2024-02-15T09:13:20;12.35;;;6.95;;
84146;SDS011;74267;50.434;7.398;2024-02-15T09:15:47;14.45;;;8.13;;
84146;SDS011;74267;50.434;7.398;2024-02-15T09:18:13;13.63;;;7.78;;
84146;SDS011;74267;50.434;7.398;2024-02-15T09:20:38;12.48;;;6.25;;
84146;SDS011;74267;50.434;7.398;2024-02-15T09:23:09;11.35;;;6.88;;
84146;SDS011;74267;50.434;7.398;2024-02-15T09:25:39;11.15;;;6.47;;
84146;SDS011;74267;50.434;7.398;2024-02-15T09:28:05;15.57;;;7.13;;
84146;SDS011;74267;50.434;7.398;2024-02-15T09:30:30;14.93;;;6.53;;
84146;SDS011;74267;50.434;7.398;2024-02-15T09:32:56;16.25;;;6.97;;
84146;SDS011;74267;50.434;7.398;2024-02-15T09:35:22;15.45;;;6.88;;
84146;SDS011;74267;50.434;7.398;2024-02-15T09:37:48;14.18;;;7.55;;
84146;SDS011;74267;50.434;7.398;2024-02-15T09:40:14;15.48;;;7.03;;
84146;SDS011;74267;50.434;7.398;2024-02-15T09:42:42;11.95;;;6.40;;
84146;SDS011;74267;50.434;7.398;2024-02-15T09:45:10;12.20;;;7.13;;
84146;SDS011;74267;50.434;7.398;2024-02-15T09:47:37;13.55;;;6.55;;
84146;SDS011;74267;50.434;7.398;2024-02-15T09:50:06;21.98;;;10.43;;
84146;SDS011;74267;50.434;7.398;2024-02-15T09:52:32;16.85;;;10.68;;
84146;SDS011;74267;50.434;7.398;2024-02-15T09:55:02;21.95;;;7.30;;
84146;SDS011;74267;50.434;7.398;2024-02-15T09:57:29;12.80;;;7.28;;
84146;SDS011;74267;50.434;7.398;2024-02-15T10:02:22;15.77;;;6.82;;
84146;SDS011;74267;50.434;7.398;2024-02-15T10:04:49;13.00;;;6.95;;
84146;SDS011;74267;50.434;7.398;2024-02-15T10:07:15;12.27;;;9.25;;
84146;SDS011;74267;50.434;7.398;2024-02-15T10:09:43;14.50;;;7.47;;
84146;SDS011;74267;50.434;7.398;2024-02-15T10:12:08;10.93;;;5.82;;
84146;SDS011;74267;50.434;7.398;2024-02-15T10:14:34;10.88;;;6.25;;
84146;SDS011;74267;50.434;7.398;2024-02-15T10:17:05;12.05;;;6.45;;
84146;SDS011;74267;50.434;7.398;2024-02-15T10:19:36;12.45;;;6.00;;
84146;SDS011;74267;50.434;7.398;2024-02-15T10:22:08;10.75;;;6.38;;
84146;SDS011;74267;50.434;7.398;2024-02-15T10:24:34;12.38;;;6.10;;
84146;SDS011;74267;50.434;7.398;2024-02-15T10:27:03;10.77;;;6.55;;
84146;SDS011;74267;50.434;7.398;2024-02-15T10:29:31;12.27;;;6.07;;
84146;SDS011;74267;50.434;7.398;2024-02-15T10:31:57;15.48;;;7.13;;
84146;SDS011;74267;50.434;7.398;2024-02-15T10:34:26;10.82;;;8.40;;
84146;SDS011;74267;50.434;7.398;2024-02-15T10:36:53;11.30;;;6.38;;
84146;SDS011;74267;50.434;7.398;2024-02-15T10:39:38;9.43;;;5.75;;
84146;SDS011;74267;50.434;7.398;2024-02-15T10:42:08;8.82;;;5.72;;
84146;SDS011;74267;50.434;7.398;2024-02-15T10:44:36;7.68;;;4.90;;
84146;SDS011;74267;50.434;7.398;2024-02-15T10:47:03;10.43;;;5.25;;
84146;SDS011;74267;50.434;7.398;2024-02-15T10:51:57;9.93;;;4.87;;
84146;SDS011;74267;50.434;7.398;2024-02-15T10:55:09;8.32;;;5.13;;
84146;SDS011;74267;50.434;7.398;2024-02-15T10:57:19;9.98;;;5.47;;
84146;SDS011;74267;50.434;7.398;2024-02-15T10:59:56;9.02;;;5.63;;
84146;SDS011;74267;50.434;7.398;2024-02-15T11:02:26;7.93;;;4.10;;
84146;SDS011;74267;50.434;7.398;2024-02-15T11:04:54;7.53;;;4.90;;
84146;SDS011;74267;50.434;7.398;2024-02-15T11:07:28;9.13;;;4.32;;
84146;SDS011;74267;50.434;7.398;2024-02-15T11:09:55;6.93;;;4.43;;
84146;SDS011;74267;50.434;7.398;2024-02-15T11:12:24;7.28;;;4.28;;
84146;SDS011;74267;50.434;7.398;2024-02-15T11:14:51;7.95;;;4.93;;
84146;SDS011;74267;50.434;7.398;2024-02-15T11:20:02;5.78;;;3.30;;
84146;SDS011;74267;50.434;7.398;2024-02-15T11:22:33;8.23;;;4.20;;
84146;SDS011;74267;50.434;7.398;2024-02-15T11:25:01;6.70;;;3.78;;
84146;SDS011;74267;50.434;7.398;2024-02-15T11:27:33;8.15;;;5.78;;
84146;SDS011;74267;50.434;7.398;2024-02-15T11:30:02;7.68;;;6.22;;
84146;SDS011;74267;50.434;7.398;2024-02-15T11:32:47;9.38;;;3.72;;
84146;SDS011;74267;50.434;7.398;2024-02-15T11:35:27;8.13;;;4.20;;
84146;SDS011;74267;50.434;7.398;2024-02-15T11:37:55;9.77;;;3.47;;
84146;SDS011;74267;50.434;7.398;2024-02-15T11:40:25;9.80;;;3.72;;
84146;SDS011;74267;50.434;7.398;2024-02-15T11:42:59;2.45;;;1.52;;
84146;SDS011;74267;50.434;7.398;2024-02-15T11:45:25;4.10;;;2.25;;
84146;SDS011;74267;50.434;7.398;2024-02-15T11:47:52;10.55;;;3.60;;
84146;SDS011;74267;50.434;7.398;2024-02-15T11:50:20;3.97;;;2.72;;
84146;SDS011;74267;50.434;7.398;2024-02-15T11:52:47;3.70;;;3.40;;
84146;SDS011;74267;50.434;7.398;2024-02-15T11:55:22;5.22;;;2.45;;
84146;SDS011;74267;50.434;7.398;2024-02-15T11:57:54;4.65;;;1.80;;
84146;SDS011;74267;50.434;7.398;2024-02-15T12:00:25;3.70;;;3.08;;
84146;SDS011;74267;50.434;7.398;2024-02-15T12:03:10;4.25;;;1.80;;
84146;SDS011;74267;50.434;7.398;2024-02-15T12:05:57;4.72;;;1.77;;
84146;SDS011;74267;50.434;7.398;2024-02-15T12:08:44;4.03;;;1.75;;
84146;SDS011;74267;50.434;7.398;2024-02-15T12:11:32;3.65;;;1.63;;
84146;SDS011;74267;50.434;7.398;2024-02-15T12:14:16;3.22;;;1.77;;
84146;SDS011;74267;50.434;7.398;2024-02-15T12:17:01;4.20;;;2.35;;
84146;SDS011;74267;50.434;7.398;2024-02-15T12:19:51;4.72;;;4.32;;
84146;SDS011;74267;50.434;7.398;2024-02-15T12:22:19;6.55;;;3.88;;
84146;SDS011;74267;50.434;7.398;2024-02-15T12:25:19;5.47;;;3.47;;
84146;SDS011;74267;50.434;7.398;2024-02-15T12:27:42;5.22;;;1.88;;
84146;SDS011;74267;50.434;7.398;2024-02-15T12:30:15;2.10;;;1.40;;
84146;SDS011;74267;50.434;7.398;2024-02-15T12:32:50;5.00;;;1.48;;
84146;SDS011;74267;50.434;7.398;2024-02-15T12:35:17;4.30;;;2.10;;
84146;SDS011;74267;50.434;7.398;2024-02-15T12:37:48;2.47;;;1.10;;
84146;SDS011;74267;50.434;7.398;2024-02-15T12:40:19;3.95;;;1.73;;
84146;SDS011;74267;50.434;7.398;2024-02-15T12:42:47;4.28;;;1.38;;
84146;SDS011;74267;50.434;7.398;2024-02-15T12:45:19;4.57;;;1.80;;
84146;SDS011;74267;50.434;7.398;2024-02-15T12:47:51;4.40;;;1.88;;
84146;SDS011;74267;50.434;7.398;2024-02-15T12:50:18;4.03;;;3.65;;
84146;SDS011;74267;50.434;7.398;2024-02-15T12:52:48;2.88;;;2.05;;
84146;SDS011;74267;50.434;7.398;2024-02-15T12:55:20;5.40;;;2.10;;
84146;SDS011;74267;50.434;7.398;2024-02-15T12:57:48;3.50;;;1.50;;
84146;SDS011;74267;50.434;7.398;2024-02-15T13:00:19;3.17;;;1.88;;
84146;SDS011;74267;50.434;7.398;2024-02-15T13:02:56;6.50;;;1.45;;
84146;SDS011;74267;50.434;7.398;2024-02-15T13:05:24;4.88;;;2.33;;
84146;SDS011;74267;50.434;7.398;2024-02-15T13:07:51;4.55;;;1.42;;
84146;SDS011;74267;50.434;7.398;2024-02-15T13:10:17;4.45;;;3.63;;
84146;SDS011;74267;50.434;7.398;2024-02-15T13:12:43;4.75;;;1.58;;
84146;SDS011;74267;50.434;7.398;2024-02-15T13:15:10;2.70;;;1.55;;
84146;SDS011;74267;50.434;7.398;2024-02-15T13:17:39;2.65;;;1.20;;
84146;SDS011;74267;50.434;7.398;2024-02-15T13:20:13;2.70;;;1.33;;
84146;SDS011;74267;50.434;7.398;2024-02-15T13:22:43;6.80;;;3.65;;
84146;SDS011;74267;50.434;7.398;2024-02-15T13:25:09;2.15;;;1.45;;
84146;SDS011;74267;50.434;7.398;2024-02-15T13:27:38;2.17;;;1.60;;
84146;SDS011;74267;50.434;7.398;2024-02-15T13:32:36;7.53;;;3.88;;
84146;SDS011;74267;50.434;7.398;2024-02-15T13:35:03;5.22;;;2.60;;
84146;SDS011;74267;50.434;7.398;2024-02-15T13:37:37;4.15;;;3.75;;
84146;SDS011;74267;50.434;7.398;2024-02-15T13:40:04;3.33;;;1.73;;
84146;SDS011;74267;50.434;7.398;2024-02-15T13:42:39;3.25;;;1.42;;
84146;SDS011;74267;50.434;7.398;2024-02-15T13:45:05;2.92;;;1.38;;
84146;SDS011;74267;50.434;7.398;2024-02-15T13:47:34;2.55;;;1.40;;
84146;SDS011;74267;50.434;7.398;2024-02-15T13:50:00;2.60;;;1.45;;
84146;SDS011;74267;50.434;7.398;2024-02-15T13:52:26;3.70;;;1.83;;
84146;SDS011;74267;50.434;7.398;2024-02-15T13:54:51;5.60;;;1.70;;
84146;SDS011;74267;50.434;7.398;2024-02-15T13:57:17;3.33;;;1.50;;
84146;SDS011;74267;50.434;7.398;2024-02-15T13:59:42;2.10;;;1.27;;
84146;SDS011;74267;50.434;7.398;2024-02-15T14:02:08;4.07;;;2.08;;
84146;SDS011;74267;50.434;7.398;2024-02-15T14:04:33;4.35;;;3.47;;
84146;SDS011;74267;50.434;7.398;2024-02-15T14:06:59;4.63;;;1.77;;
84146;SDS011;74267;50.434;7.398;2024-02-15T14:09:24;2.70;;;1.83;;
84146;SDS011;74267;50.434;7.398;2024-02-15T14:11:51;4.05;;;2.03;;
84146;SDS011;74267;50.434;7.398;2024-02-15T14:14:16;5.32;;;3.28;;
84146;SDS011;74267;50.434;7.398;2024-02-15T14:16:42;2.58;;;1.88;;
84146;SDS011;74267;50.434;7.398;2024-02-15T14:19:07;4.22;;;3.63;;
84146;SDS011;74267;50.434;7.398;2024-02-15T14:21:33;5.95;;;2.13;;
84146;SDS011;74267;50.434;7.398;2024-02-15T14:24:03;2.95;;;1.55;;
84146;SDS011;74267;50.434;7.398;2024-02-15T14:26:31;2.55;;;1.55;;
84146;SDS011;74267;50.434;7.398;2024-02-15T14:28:57;4.65;;;2.85;;
84146;SDS011;74267;50.434;7.398;2024-02-15T14:31:22;3.95;;;3.63;;
84146;SDS011;74267;50.434;7.398;2024-02-15T14:34:06;4.20;;;1.83;;
84146;SDS011;74267;50.434;7.398;2024-02-15T14:36:31;3.22;;;1.60;;
84146;SDS011;74267;50.434;7.398;2024-02-15T14:38:56;5.18;;;1.40;;
84146;SDS011;74267;50.434;7.398;2024-02-15T14:41:21;4.10;;;2.88;;
84146;SDS011;74267;50.434;7.398;2024-02-15T14:43:48;2.75;;;1.60;;
84146;SDS011;74267;50.434;7.398;2024-02-15T14:46:13;3.80;;;1.40;;
84146;SDS011;74267;50.434;7.398;2024-02-15T14:48:38;3.22;;;0.98;;
84146;SDS011;74267;50.434;7.398;2024-02-15T14:51:05;3.30;;;1.70;;
84146;SDS011;74267;50.434;7.398;2024-02-15T14:53:30;4.40;;;1.88;;
84146;SDS011;74267;50.434;7.398;2024-02-15T14:55:56;4.78;;;1.83;;